Time;durP1;ratioP1;P1;durP2;ratioP2;P2;SDS_P1;SDS_P2;PMS_P1;PMS_P2;Temp;Humidity;BMP_temperature;BMP_pressure;BME280_temperature;BME280_humidity;BME280_pressure;Samples;Min_cycle;Max_cycle;Signal;HPM_P1;HPM_P2
2021/07/23 00:01:38;;;;;;;10.95;8.52;;;;;;;29.70;68.16;100729.56;5122623;27;70733;-37
2021/07/23 00:04:10;;;;;;;15.13;7.30;;;;;;;29.73;68.26;100728.31;5130586;27;65495;-39
2021/07/23 00:06:41;;;;;;;20.33;8.18;;;;;;;29.52;68.47;100699.66;5126637;27;70087;-40
2021/07/23 00:09:11;;;;;;;13.52;6.38;;;;;;;29.76;67.58;100723.28;5124154;27;66478;-41
2021/07/23 00:11:41;;;;;;;10.63;6.38;;;;;;;29.82;69.02;100725.13;5124327;27;69341;-39
2021/07/23 00:14:11;;;;;;;10.55;6.53;;;;;;;29.73;68.46;100715.59;5125298;27;67013;-39
2021/07/23 00:16:41;;;;;;;12.52;8.20;;;;;;;29.88;68.98;100725.28;5121096;27;70802;-40
2021/07/23 00:19:12;;;;;;;15.50;9.93;;;;;;;29.68;69.89;100693.78;5129997;27;65510;-36
2021/07/23 00:21:42;;;;;;;22.60;8.77;;;;;;;29.83;69.53;100707.84;5122470;27;69565;-41
2021/07/23 00:24:12;;;;;;;19.38;8.95;;;;;;;29.90;69.44;100724.03;5126086;27;65897;-38
2021/07/23 00:26:42;;;;;;;24.88;10.48;;;;;;;29.90;70.25;100728.63;5119252;27;70321;-40
2021/07/23 00:29:12;;;;;;;16.77;9.00;;;;;;;29.94;70.31;100729.81;5122400;27;66373;-38
2021/07/23 00:31:42;;;;;;;16.80;8.63;;;;;;;29.93;69.37;100728.19;5121059;27;70436;-39
2021/07/23 00:34:14;;;;;;;9.80;7.07;;;;;;;29.98;69.91;100731.06;5140661;27;65562;-39
2021/07/23 00:36:44;;;;;;;14.65;7.95;;;;;;;30.01;70.28;100736.03;5119613;27;69129;-40
2021/07/23 00:39:15;;;;;;;10.98;9.05;;;;;;;30.04;70.14;100735.59;5115577;27;66034;-39
2021/07/23 00:41:46;;;;;;;17.85;8.02;;;;;;;30.04;69.39;100730.19;5116448;27;69940;-39
2021/07/23 00:44:16;;;;;;;7.10;6.57;;;;;;;30.04;70.16;100733.72;5118120;27;65888;-39
2021/07/23 00:46:49;;;;;;;6.80;6.13;;;;;;;30.08;69.95;100731.41;5118544;27;69135;-41
2021/07/23 00:49:19;;;;;;;;;;;;;;;29.84;71.87;100725.72;5118777;27;66297;-40
2021/07/23 00:51:52;;;;;;;18.63;6.27;;;;;;;30.11;70.49;100733.66;5117822;27;69364;-40
2021/07/23 00:54:26;;;;;;;14.40;6.45;;;;;;;29.91;70.10;100681.59;5116157;27;65353;-40
2021/07/23 00:56:59;;;;;;;9.48;6.30;;;;;;;30.20;70.00;100731.50;5118357;27;71000;-40
2021/07/23 00:59:32;;;;;;;8.50;6.10;;;;;;;30.21;69.47;100725.06;5116848;27;66345;-40
2021/07/23 01:02:04;;;;;;;7.07;5.80;;;;;;;30.23;70.21;100729.25;5117474;27;70956;-40
2021/07/23 01:04:37;;;;;;;6.85;5.55;;;;;;;30.24;69.76;100728.19;5115537;27;66312;-40
2021/07/23 01:07:09;;;;;;;6.20;5.43;;;;;;;30.21;70.50;100715.06;5103215;27;69480;-39
2021/07/23 01:09:41;;;;;;;5.85;5.35;;;;;;;30.33;69.75;100725.22;5116258;27;66802;-38
2021/07/23 01:12:33;;;;;;;7.32;5.40;;;;;;;30.35;69.93;100718.53;5120435;27;70101;-39
2021/07/23 01:15:05;;;;;;;7.03;5.60;;;;;;;30.38;70.38;100722.69;5085689;27;65503;-39
2021/07/23 01:17:37;;;;;;;5.40;4.90;;;;;;;30.39;70.48;100721.63;5101506;27;69790;-44
2021/07/23 01:20:13;;;;;;;6.68;5.28;;;;;;;30.44;70.52;100727.22;5114244;27;66086;-43
2021/07/23 01:22:48;;;;;;;5.88;5.38;;;;;;;30.49;70.06;100721.97;5112064;27;69873;-41
2021/07/23 01:25:19;;;;;;;10.90;5.55;;;;;;;30.42;70.36;100711.22;5122261;27;64436;-41
2021/07/23 01:27:56;;;;;;;10.10;5.60;;;;;;;30.55;69.85;100723.78;5138058;27;70738;-40
2021/07/23 01:30:38;;;;;;;6.40;5.90;;;;;;;30.57;70.16;100723.56;5122118;27;66319;-40
2021/07/23 01:33:18;;;;;;;9.10;6.00;;;;;;;30.60;70.81;100718.53;5124474;27;70028;-41
2021/07/23 01:35:54;;;;;;;11.45;6.20;;;;;;;30.62;70.57;100711.03;5116637;27;66605;-41
2021/07/23 01:38:29;;;;;;;7.90;5.88;;;;;;;30.67;70.33;100708.47;5123384;27;69745;-39
2021/07/23 01:41:03;;;;;;;9.88;5.85;;;;;;;30.68;69.84;100715.53;5099255;27;66504;-40
2021/07/23 01:43:38;;;;;;;6.78;6.18;;;;;;;30.50;69.74;100691.13;5113751;27;70162;-41
2021/07/23 01:46:10;;;;;;;8.80;5.43;;;;;;;30.76;69.45;100730.69;5107087;27;65535;-41
2021/07/23 01:48:46;;;;;;;7.00;4.95;;;;;;;30.73;69.42;100723.84;5110348;27;70422;-42
2021/07/23 01:51:37;;;;;;;4.63;4.22;;;;;;;30.57;68.99;100689.19;5107567;27;66569;-39
2021/07/23 01:54:19;;;;;;;5.25;4.63;;;;;;;30.86;68.48;100732.91;5111168;27;69749;-42
2021/07/23 01:56:52;;;;;;;3.78;3.47;;;;;;;30.87;68.14;100734.53;5072361;27;66360;-40
2021/07/23 01:59:25;;;;;;;3.85;3.50;;;;;;;30.93;68.53;100739.09;5110801;27;70554;-43
2021/07/23 02:01:56;;;;;;;3.20;2.90;;;;;;;30.97;67.80;100744.88;5107109;27;66055;-42
2021/07/23 02:04:41;;;;;;;3.83;3.42;;;;;;;31.01;67.93;100752.34;5118608;27;69855;-40
2021/07/23 02:07:14;;;;;;;5.07;3.22;;;;;;;31.04;67.89;100743.75;5085470;27;66718;-40
2021/07/23 02:09:50;;;;;;;4.47;2.95;;;;;;;31.07;67.37;100746.00;5114703;27;69154;-44
2021/07/23 02:12:24;;;;;;;3.22;3.00;;;;;;;31.09;67.47;100743.91;5102206;27;66892;-41
2021/07/23 02:15:09;;;;;;;3.20;2.80;;;;;;;31.09;66.82;100751.19;5103457;27;69315;-41
2021/07/23 02:17:45;;;;;;;3.10;2.75;;;;;;;31.14;66.90;100754.88;5077121;27;66834;-40
2021/07/23 02:20:24;;;;;;;3.17;2.88;;;;;;;31.19;66.51;100758.81;5110538;27;69571;-39
2021/07/23 02:22:55;;;;;;;3.72;2.90;;;;;;;31.20;66.01;100760.47;5095376;27;64830;-40
2021/07/23 02:25:45;;;;;;;3.30;3.00;;;;;;;31.16;66.44;100751.97;5079266;27;69741;-41
2021/07/23 02:28:22;;;;;;;3.25;3.05;;;;;;;31.16;65.75;100750.06;5113551;27;66609;-40
2021/07/23 02:31:16;;;;;;;2.95;2.75;;;;;;;31.28;66.09;100758.28;5111290;27;69802;-42
2021/07/23 02:34:05;;;;;;;2.95;2.67;;;;;;;31.29;65.63;100759.13;5112863;27;65416;-40
2021/07/23 02:37:02;;;;;;;4.07;2.88;;;;;;;31.33;65.62;100771.16;5118999;27;70181;-41
2021/07/23 02:39:40;;;;;;;2.75;2.55;;;;;;;31.37;65.72;100767.81;5100474;27;66197;-42
2021/07/23 02:42:17;;;;;;;3.53;3.28;;;;;;;31.35;65.75;100760.94;5092940;27;70100;-42
2021/07/23 02:45:02;;;;;;;3.83;3.53;;;;;;;31.20;65.03;100714.41;5117157;27;66885;-42
2021/07/23 02:47:43;;;;;;;3.50;3.30;;;;;;;31.47;65.26;100755.59;5097304;27;70382;-43
2021/07/23 02:50:29;;;;;;;4.10;3.22;;;;;;;31.46;64.61;100752.06;5121605;27;66449;-43
2021/07/23 02:53:08;;;;;;;3.72;3.30;;;;;;;31.52;65.04;100759.28;5123344;27;70731;-43
2021/07/23 02:55:54;;;;;;;4.10;3.75;;;;;;;31.58;64.79;100741.28;5120844;27;65522;-41
2021/07/23 02:58:42;;;;;;;4.43;3.17;;;;;;;31.54;64.59;100735.47;5119815;27;70225;-44
2021/07/23 03:01:18;;;;;;;3.78;3.47;;;;;;;31.60;64.63;100742.69;5113613;27;66296;-43
2021/07/23 03:03:57;;;;;;;3.72;3.42;;;;;;;31.63;64.49;100735.16;5116902;27;70175;-42
2021/07/23 03:06:42;;;;;;;4.63;4.10;;;;;;;31.64;64.51;100731.41;5102478;27;66419;-43
2021/07/23 03:09:18;;;;;;;4.15;3.85;;;;;;;31.66;64.25;100735.53;5117819;27;70237;-41
2021/07/23 03:11:59;;;;;;;4.22;4.00;;;;;;;31.63;63.64;100721.63;5079466;27;65840;-44
2021/07/23 03:15:06;;;;;;;4.25;3.88;;;;;;;31.72;64.05;100709.38;5121272;27;70509;-42
2021/07/23 03:17:42;;;;;;;5.18;3.88;;;;;;;31.74;63.72;100720.84;5083439;27;66159;-41
2021/07/23 03:20:15;;;;;;;4.30;3.90;;;;;;;31.73;63.42;100700.19;5099667;27;70304;-42
2021/07/23 03:22:46;;;;;;;4.35;3.95;;;;;;;31.76;63.74;100702.41;5110872;27;66494;-41
2021/07/23 03:25:42;;;;;;;4.57;3.80;;;;;;;31.79;63.53;100699.28;5116968;27;70152;-42
2021/07/23 03:28:35;;;;;;;3.92;3.58;;;;;;;31.80;63.80;100695.50;5124643;27;65377;-42
2021/07/23 03:31:34;;;;;;;4.32;3.80;;;;;;;31.86;63.42;100694.56;5114567;27;70072;-43
2021/07/23 03:34:17;;;;;;;4.30;3.60;;;;;;;31.90;63.40;100684.06;5116170;27;65782;-44
2021/07/23 03:37:00;;;;;;;7.82;4.05;;;;;;;31.92;63.08;100687.41;5107309;27;70947;-43
2021/07/23 03:39:56;;;;;;;4.93;3.63;;;;;;;31.92;62.56;100693.66;5116893;27;65196;-42
2021/07/23 03:42:52;;;;;;;6.03;4.45;;;;;;;31.91;62.34;100716.44;5110739;27;69598;-44
2021/07/23 03:45:37;;;;;;;6.03;4.82;;;;;;;31.44;62.39;100651.16;5114566;27;66506;-44
2021/07/23 03:48:16;;;;;;;5.18;3.80;;;;;;;31.63;62.75;100699.91;5115191;27;70054;-41
2021/07/23 03:50:53;;;;;;;5.18;4.53;;;;;;;31.89;62.38;100723.94;5113957;27;66320;-39
2021/07/23 03:53:35;;;;;;;6.60;4.10;;;;;;;31.87;62.33;100707.06;5113405;27;69891;-40
2021/07/23 03:56:25;;;;;;;8.00;4.50;;;;;;;31.84;62.61;100702.09;5105966;27;65699;-41
2021/07/23 03:59:01;;;;;;;3.72;3.42;;;;;;;31.85;62.37;100697.53;5114381;27;70233;-40
2021/07/23 04:01:55;;;;;;;3.63;2.80;;;;;;;31.79;62.54;100699.28;5118159;27;65923;-41
2021/07/23 04:04:28;;;;;;;4.80;2.50;;;;;;;31.76;62.37;100675.31;5104185;27;69293;-41
2021/07/23 04:07:07;;;;;;;3.10;2.65;;;;;;;31.76;62.54;100662.59;5110462;27;65930;-42
2021/07/23 04:09:44;;;;;;;2.97;2.78;;;;;;;31.74;62.46;100658.47;5112400;27;70169;-42
2021/07/23 04:12:24;;;;;;;2.55;2.05;;;;;;;31.76;62.91;100665.31;5105663;27;66097;-42
2021/07/23 04:15:09;;;;;;;2.05;1.90;;;;;;;31.75;62.81;100660.09;5099138;27;71697;-42
2021/07/23 04:18:00;;;;;;;3.35;2.55;;;;;;;31.72;62.59;100633.44;5109202;27;66308;-41
2021/07/23 04:20:36;;;;;;;2.88;2.67;;;;;;;31.69;62.09;100632.03;5093095;27;69313;-42
2021/07/23 04:23:20;;;;;;;5.97;3.08;;;;;;;31.66;61.53;100634.38;5108035;27;66041;-42
2021/07/23 04:25:52;;;;;;;7.18;3.92;;;;;;;31.68;62.42;100638.53;5111813;27;70155;-37
2021/07/23 04:28:29;;;;;;;7.63;5.60;;;;;;;31.47;63.53;100604.59;5092083;27;66287;-48
2021/07/23 04:31:03;;;;;;;8.07;5.07;;;;;;;31.68;64.21;100630.38;5093149;27;69628;-50
2021/07/23 04:33:50;;;;;;;8.82;5.60;;;;;;;31.44;63.57;100588.81;5109830;27;65506;-48
2021/07/23 04:36:43;;;;;;;5.20;4.70;;;;;;;31.71;63.99;100626.38;5114804;27;70328;-40
2021/07/23 04:39:47;;;;;;;7.07;4.80;;;;;;;31.67;64.48;100614.34;5101570;27;65679;-37
2021/07/23 04:42:27;;;;;;;8.45;5.75;;;;;;;31.66;65.54;100612.69;5112544;27;70212;-39
2021/07/23 04:45:14;;;;;;;21.67;6.78;;;;;;;31.67;66.20;100617.03;5124987;27;66188;-38
2021/07/23 04:48:04;;;;;;;16.73;6.20;;;;;;;31.54;66.10;100593.69;5095931;27;70750;-42
2021/07/23 04:51:01;;;;;;;18.10;6.35;;;;;;;31.46;64.44;100597.53;5102018;27;64930;-38
2021/07/23 04:53:54;;;;;;;7.22;5.93;;;;;;;31.24;64.16;100590.97;5104988;27;69597;-41
2021/07/23 04:56:56;;;;;;;9.93;5.63;;;;;;;31.10;62.77;100577.59;5088554;27;65687;-37
2021/07/23 04:59:58;;;;;;;6.25;5.43;;;;;;;30.90;63.01;100571.63;5107079;27;69962;-39
2021/07/23 05:02:41;;;;;;;10.07;5.47;;;;;;;30.71;62.93;100571.59;5113258;27;66492;-41
2021/07/23 05:05:25;;;;;;;12.70;5.78;;;;;;;30.54;62.35;100562.44;5110108;27;70339;-43
2021/07/23 05:08:09;;;;;;;22.00;6.05;;;;;;;30.31;61.74;100554.94;5096073;27;65179;-42
2021/07/23 05:10:52;;;;;;;20.00;5.88;;;;;;;30.21;61.72;100558.16;5101618;27;70015;-42
2021/07/23 05:13:43;;;;;;;16.92;6.05;;;;;;;30.05;61.60;100553.31;5104065;27;66472;-44
2021/07/23 05:16:19;;;;;;;10.57;5.78;;;;;;;29.92;60.74;100554.28;5098892;27;69982;-44
2021/07/23 05:19:03;;;;;;;9.00;5.32;;;;;;;29.77;60.41;100578.94;5114559;27;66437;-43
2021/07/23 05:21:46;;;;;;;6.65;5.22;;;;;;;29.62;60.37;100605.44;5095145;27;70376;-44
2021/07/23 05:24:31;;;;;;;5.72;4.65;;;;;;;29.32;59.42;100594.41;5113660;27;67081;-43
2021/07/23 05:27:04;;;;;;;4.57;4.28;;;;;;;29.47;58.70;100653.53;5107552;27;71077;-43
2021/07/23 05:29:35;;;;;;;14.50;4.30;;;;;;;29.39;57.90;100706.81;5104178;27;66425;-45
2021/07/23 05:32:10;;;;;;;6.20;4.47;;;;;;;29.36;57.11;100739.66;5114726;27;69455;-42
2021/07/23 05:34:44;;;;;;;5.18;3.95;;;;;;;29.29;57.52;100719.94;5126062;27;66372;-41
2021/07/23 05:37:21;;;;;;;5.00;4.40;;;;;;;29.18;56.66;100685.47;5106757;27;69080;-42
2021/07/23 05:39:58;;;;;;;7.15;3.58;;;;;;;29.13;56.45;100701.50;5106933;27;66298;-43
2021/07/23 05:42:33;;;;;;;5.68;3.25;;;;;;;29.07;56.68;100707.75;5084606;27;68707;-40
2021/07/23 05:45:23;;;;;;;3.85;3.28;;;;;;;29.01;55.92;100700.47;5111463;27;66109;-41
2021/07/23 05:48:08;;;;;;;5.07;3.00;;;;;;;28.93;56.40;100685.31;5105054;27;69722;-38
2021/07/23 05:50:42;;;;;;;8.40;3.53;;;;;;;28.85;55.89;100662.06;5109925;27;66399;-38
2021/07/23 05:53:17;;;;;;;3.17;2.88;;;;;;;28.80;56.19;100650.25;5108833;27;70273;-38
2021/07/23 05:55:51;;;;;;;3.22;2.92;;;;;;;28.78;55.58;100634.28;5112602;27;65427;-40
2021/07/23 05:58:31;;;;;;;4.78;3.10;;;;;;;28.71;55.24;100619.97;5109877;27;69142;-40
2021/07/23 06:01:09;;;;;;;3.70;3.00;;;;;;;28.65;54.71;100601.91;5108390;27;66052;-43
2021/07/23 06:04:00;;;;;;;5.55;2.63;;;;;;;28.60;54.91;100604.41;5112668;27;69613;-43
2021/07/23 06:06:31;;;;;;;3.08;2.80;;;;;;;28.51;54.82;100593.84;5083212;27;66187;-42
2021/07/23 06:09:16;;;;;;;3.58;2.88;;;;;;;28.49;54.34;100582.44;5113014;27;69302;-40
2021/07/23 06:12:13;;;;;;;2.53;2.30;;;;;;;28.30;54.19;100577.88;5109394;27;66292;-40
2021/07/23 06:14:52;;;;;;;3.22;2.38;;;;;;;28.34;53.39;100591.78;5112689;27;69432;-40
2021/07/23 06:17:33;;;;;;;2.42;2.22;;;;;;;28.29;53.73;100608.59;5118460;27;65977;-40
2021/07/23 06:20:13;;;;;;;3.15;2.55;;;;;;;28.26;53.03;100609.00;5119373;27;69233;-39
2021/07/23 06:22:44;;;;;;;4.05;2.20;;;;;;;28.19;53.46;100597.38;5106977;27;66640;-39
2021/07/23 06:25:26;;;;;;;2.42;2.22;;;;;;;28.20;52.92;100593.69;5122220;27;70100;-43
2021/07/23 06:28:01;;;;;;;3.58;2.25;;;;;;;28.14;53.08;100592.66;5119217;27;66509;-40
2021/07/23 06:30:38;;;;;;;2.17;1.88;;;;;;;28.11;52.92;100578.72;5115791;27;70430;-41
2021/07/23 06:33:14;;;;;;;2.63;2.15;;;;;;;28.07;53.38;100581.03;5126983;27;66043;-41
2021/07/23 06:35:55;;;;;;;2.65;2.22;;;;;;;27.91;53.72;100541.81;5119662;27;70648;-40
2021/07/23 06:38:39;;;;;;;1.95;1.80;;;;;;;27.97;53.80;100551.78;5107089;27;64951;-41
2021/07/23 06:41:20;;;;;;;2.63;2.22;;;;;;;28.03;53.89;100569.00;5122368;27;70120;-40
2021/07/23 06:43:54;;;;;;;2.50;2.30;;;;;;;28.02;54.20;100570.84;5118423;27;66365;-47
2021/07/23 06:46:44;;;;;;;2.80;2.17;;;;;;;27.97;53.87;100576.06;5112698;27;68536;-44
2021/07/23 06:49:23;;;;;;;2.20;1.95;;;;;;;27.97;53.98;100567.13;5108583;27;65433;-44
2021/07/23 06:52:10;;;;;;;2.35;2.15;;;;;;;27.94;54.28;100557.56;5110759;27;69743;-43
2021/07/23 06:54:44;;;;;;;2.55;2.20;;;;;;;27.96;54.61;100560.91;5115707;27;65779;-45
2021/07/23 06:57:20;;;;;;;2.58;2.38;;;;;;;27.98;54.37;100563.41;5113144;27;70090;-44
2021/07/23 07:00:00;;;;;;;5.88;1.98;;;;;;;27.97;54.36;100562.59;5076280;27;65256;-46
2021/07/23 07:02:40;;;;;;;2.88;2.30;;;;;;;27.98;54.14;100568.78;5097455;27;70132;-44
2021/07/23 07:05:24;;;;;;;2.42;2.22;;;;;;;27.95;53.78;100559.25;5096913;27;66076;-42
2021/07/23 07:08:04;;;;;;;2.47;2.28;;;;;;;27.93;53.99;100569.41;5113538;27;70384;-41
2021/07/23 07:10:48;;;;;;;5.13;2.20;;;;;;;27.87;53.84;100551.38;5111628;27;66425;-45
2021/07/23 07:13:41;;;;;;;5.03;2.53;;;;;;;27.85;53.79;100542.66;5103013;27;70478;-43
2021/07/23 07:16:17;;;;;;;5.00;3.13;;;;;;;27.91;54.18;100528.34;5110615;27;66303;-42
2021/07/23 07:18:53;;;;;;;6.38;3.38;;;;;;;27.92;53.88;100516.53;5102632;27;69330;-41
2021/07/23 07:21:41;;;;;;;2.97;2.67;;;;;;;27.85;53.67;100494.13;5106880;27;65944;-42
2021/07/23 07:24:22;;;;;;;3.08;2.88;;;;;;;27.58;53.30;100445.66;5096278;27;70343;-41
2021/07/23 07:26:58;;;;;;;2.70;2.50;;;;;;;27.85;53.80;100494.97;5108847;27;66601;-43
2021/07/23 07:29:43;;;;;;;2.97;2.67;;;;;;;27.58;53.63;100448.34;5110629;27;69551;-42
2021/07/23 07:32:26;;;;;;;3.17;2.88;;;;;;;27.73;53.46;100468.84;5092909;27;65195;-43
2021/07/23 07:35:03;;;;;;;3.67;2.65;;;;;;;27.79;53.17;100485.03;5108019;27;69338;-42
2021/07/23 07:37:42;;;;;;;5.38;2.67;;;;;;;27.57;52.99;100443.16;5108048;27;65716;-42
2021/07/23 07:40:30;;;;;;;3.50;3.20;;;;;;;27.76;52.66;100468.44;5105422;27;70005;-43
2021/07/23 07:43:06;;;;;;;3.40;3.10;;;;;;;27.74;52.75;100465.09;5111082;27;66441;-44
2021/07/23 07:45:46;;;;;;;7.00;3.03;;;;;;;27.71;52.77;100454.75;5082573;27;71549;-42
2021/07/23 07:48:19;;;;;;;4.10;3.35;;;;;;;27.66;52.80;100441.06;5104567;27;66225;-43
2021/07/23 07:50:51;;;;;;;4.28;3.50;;;;;;;27.69;53.08;100440.63;5116314;27;70360;-42
2021/07/23 07:53:43;;;;;;;6.15;3.22;;;;;;;27.69;52.80;100440.63;5112440;27;66759;-46
2021/07/23 07:56:44;;;;;;;6.35;4.13;;;;;;;27.75;55.68;100437.94;5095243;27;70243;-45
2021/07/23 07:59:27;;;;;;;4.30;4.00;;;;;;;27.77;57.69;100435.03;5112663;27;65563;-47
2021/07/23 08:02:13;;;;;;;7.80;4.82;;;;;;;27.87;59.52;100432.78;5099700;27;70797;-46
2021/07/23 08:04:51;;;;;;;5.32;4.93;;;;;;;27.88;58.11;100434.41;5117383;27;65458;-44
2021/07/23 08:07:31;;;;;;;5.57;5.07;;;;;;;27.78;57.04;100413.28;5094897;27;70157;-43
2021/07/23 08:10:26;;;;;;;4.93;4.53;;;;;;;27.86;56.31;100431.13;5114515;27;65907;-39
2021/07/23 08:13:19;;;;;;;5.57;5.07;;;;;;;27.78;55.18;100429.44;5115818;27;70152;-43
2021/07/23 08:15:51;;;;;;;5.13;4.60;;;;;;;27.78;54.16;100444.78;5114392;27;66835;-43
2021/07/23 08:18:35;;;;;;;7.05;4.78;;;;;;;27.76;53.80;100441.47;5084303;27;69466;-45
2021/07/23 08:21:19;;;;;;;5.00;4.60;;;;;;;27.44;53.04;100391.97;5097209;27;66263;-45
2021/07/23 08:23:54;;;;;;;6.50;4.22;;;;;;;27.70;52.72;100426.16;5084524;27;70089;-45
2021/07/23 08:26:33;;;;;;;5.00;4.60;;;;;;;27.68;52.90;100430.91;5092125;27;65907;-45
2021/07/23 08:29:16;;;;;;;12.05;4.40;;;;;;;27.66;53.15;100449.16;5120356;27;70224;-43
2021/07/23 08:31:52;;;;;;;4.95;4.45;;;;;;;27.69;53.07;100454.13;5113841;27;66966;-47
2021/07/23 08:34:28;;;;;;;5.53;5.03;;;;;;;27.68;52.27;100452.47;5116272;27;69358;-44
2021/07/23 08:37:13;;;;;;;4.95;4.55;;;;;;;27.65;51.79;100451.00;5118587;27;65122;-45
2021/07/23 08:39:53;;;;;;;4.50;4.10;;;;;;;27.18;52.35;100359.47;5121023;27;70480;-44
2021/07/23 08:42:33;;;;;;;7.05;4.50;;;;;;;27.71;52.31;100438.56;5102948;27;65790;-44
2021/07/23 08:45:16;;;;;;;8.65;4.07;;;;;;;27.70;52.84;100442.31;5115379;27;69922;-44
2021/07/23 08:47:54;;;;;;;9.98;4.90;;;;;;;27.70;53.98;100431.53;5112310;27;66220;-43
2021/07/23 08:50:32;;;;;;;26.30;5.53;;;;;;;27.77;55.99;100432.34;5116016;27;70165;-45
2021/07/23 08:53:13;;;;;;;7.35;6.65;;;;;;;27.95;61.50;100446.03;5118464;27;65918;-43
2021/07/23 08:55:50;;;;;;;19.95;6.35;;;;;;;28.14;62.94;100443.47;5082158;27;69715;-45
2021/07/23 08:58:21;;;;;;;14.20;6.55;;;;;;;28.30;63.94;100451.09;5113616;27;66212;-46
2021/07/23 09:01:02;;;;;;;12.55;5.93;;;;;;;28.46;64.57;100456.03;5112408;27;70151;-45
2021/07/23 09:03:49;;;;;;;7.47;6.32;;;;;;;28.60;65.03;100464.09;5112767;27;66092;-46
2021/07/23 09:06:26;;;;;;;8.40;6.70;;;;;;;28.73;65.41;100458.63;5114637;27;70816;-44
2021/07/23 09:09:12;;;;;;;10.27;6.30;;;;;;;28.83;65.67;100441.94;5088663;27;66057;-43
2021/07/23 09:12:00;;;;;;;7.22;6.53;;;;;;;28.71;66.25;100388.66;5113022;27;69949;-44
2021/07/23 09:14:35;;;;;;;9.25;6.80;;;;;;;28.91;66.09;100417.41;5121381;27;65319;-45
2021/07/23 09:17:09;;;;;;;7.75;6.68;;;;;;;29.13;66.17;100436.81;5110361;27;70065;-45
2021/07/23 09:20:04;;;;;;;7.70;6.95;;;;;;;29.20;66.86;100439.44;5111551;27;65990;-44
2021/07/23 09:22:56;;;;;;;8.50;7.70;;;;;;;29.31;66.55;100439.59;5118372;27;69820;-45
2021/07/23 09:26:02;;;;;;;7.78;7.18;;;;;;;29.31;67.49;100431.47;5111581;27;65448;-42
2021/07/23 09:28:52;;;;;;;8.75;7.88;;;;;;;29.49;67.68;100424.47;5098465;27;71589;-44
2021/07/23 09:31:29;;;;;;;7.75;7.18;;;;;;;29.54;66.88;100432.72;5112821;27;63995;-45
2021/07/23 09:34:31;;;;;;;14.43;9.07;;;;;;;29.32;67.80;100387.19;5102590;27;69368;-41
2021/07/23 09:37:14;;;;;;;16.13;8.52;;;;;;;29.64;68.46;100433.06;5116295;27;65796;-40
2021/07/23 09:40:02;;;;;;;8.68;7.97;;;;;;;29.65;68.78;100417.69;5112142;27;70054;-40
2021/07/23 09:42:37;;;;;;;9.13;8.13;;;;;;;29.76;68.43;100431.28;5114874;27;66486;-39
2021/07/23 09:45:10;;;;;;;13.90;9.23;;;;;;;29.81;68.96;100439.56;5115404;27;69050;-40
2021/07/23 09:47:47;;;;;;;12.98;8.88;;;;;;;29.87;68.54;100451.38;5116041;27;65429;-40
2021/07/23 09:50:31;;;;;;;11.18;9.15;;;;;;;29.90;68.18;100437.41;5118198;27;70425;-40
2021/07/23 09:53:20;;;;;;;13.05;9.63;;;;;;;30.00;68.36;100445.78;5116369;27;65606;-41
2021/07/23 09:55:57;;;;;;;11.00;9.75;;;;;;;30.06;67.84;100441.38;5117616;27;69762;-39
2021/07/23 09:58:31;;;;;;;18.17;10.20;;;;;;;30.13;68.02;100442.13;5102342;27;64737;-39
2021/07/23 10:01:11;;;;;;;15.15;10.50;;;;;;;30.14;68.66;100443.78;5096908;27;70636;-42
2021/07/23 10:03:55;;;;;;;22.33;10.65;;;;;;;30.23;67.83;100453.28;5083409;27;66243;-44
2021/07/23 10:06:38;;;;;;;16.08;10.13;;;;;;;30.26;68.96;100452.84;5096135;27;69932;-42
2021/07/23 10:09:16;;;;;;;13.98;11.10;;;;;;;30.09;68.70;100423.84;5119057;27;66223;-41
2021/07/23 10:11:54;;;;;;;15.77;10.48;;;;;;;30.31;67.84;100448.59;5116326;27;70134;-40
2021/07/23 10:14:30;;;;;;;17.05;10.32;;;;;;;30.33;68.38;100451.91;5115766;27;65538;-41
2021/07/23 10:17:04;;;;;;;22.27;10.82;;;;;;;30.11;69.07;100416.34;5113551;27;71232;-41
2021/07/23 10:19:42;;;;;;;15.38;11.10;;;;;;;30.36;69.29;100457.69;5117935;27;65538;-41
2021/07/23 10:22:17;;;;;;;18.58;10.70;;;;;;;30.20;68.41;100420.41;5117101;27;70384;-44
2021/07/23 10:24:53;;;;;;;19.42;10.75;;;;;;;30.47;68.13;100469.63;5112183;27;66210;-43
2021/07/23 10:27:35;;;;;;;14.98;10.30;;;;;;;30.53;67.74;100463.31;5109783;27;70500;-44
2021/07/23 10:30:43;;;;;;;16.88;10.50;;;;;;;30.54;69.02;100469.56;5096859;27;66570;-42
2021/07/23 10:33:54;;;;;;;11.15;10.02;;;;;;;30.56;68.46;100470.97;5112248;27;69033;-43
2021/07/23 10:36:42;;;;;;;16.20;10.20;;;;;;;30.64;68.32;100457.13;5114664;27;65868;-42
2021/07/23 10:39:19;;;;;;;;;;;;;;;30.51;68.81;100468.16;5111498;27;70815;-43
2021/07/23 10:41:52;;;;;;;13.07;10.05;;;;;;;30.65;68.11;100466.91;5114570;27;66071;-45
2021/07/23 10:44:37;;;;;;;16.63;10.80;;;;;;;30.59;68.11;100450.75;5118224;27;70024;-45
2021/07/23 10:47:35;;;;;;;17.50;11.30;;;;;;;30.61;69.19;100454.88;5115091;27;65610;-43
2021/07/23 10:50:41;;;;;;;14.48;11.68;;;;;;;30.61;68.45;100454.88;5112342;27;69331;-47
2021/07/23 10:53:39;;;;;;;12.85;11.52;;;;;;;30.61;69.10;100462.19;5116894;27;66276;-43
2021/07/23 10:56:12;;;;;;;15.70;11.25;;;;;;;30.65;68.55;100466.91;5115340;27;69854;-46
2021/07/23 10:58:44;;;;;;;18.85;11.90;;;;;;;30.65;68.55;100466.91;5113972;27;65253;-45
2021/07/23 11:01:52;;;;;;;31.33;12.85;;;;;;;30.56;69.57;100446.59;5105714;27;70205;-47
2021/07/23 11:04:26;;;;;;;18.73;11.85;;;;;;;30.62;68.59;100451.13;5107807;27;66336;-44
2021/07/23 11:07:01;;;;;;;16.08;11.15;;;;;;;30.65;68.87;100472.34;5108412;27;70079;-42
2021/07/23 11:09:36;;;;;;;33.45;12.63;;;;;;;30.77;67.91;100466.13;5094265;27;66141;-44
2021/07/23 11:12:26;;;;;;;18.83;12.55;;;;;;;30.52;68.48;100429.19;5091642;27;69900;-41
2021/07/23 11:15:12;;;;;;;20.75;14.20;;;;;;;30.62;69.12;100459.25;5100719;27;66417;-41
2021/07/23 11:17:53;;;;;;;20.40;14.27;;;;;;;30.57;69.37;100469.94;5117922;27;69587;-39
2021/07/23 11:20:37;;;;;;;19.67;14.52;;;;;;;30.49;69.60;100462.13;5125046;27;66013;-39
2021/07/23 11:23:15;;;;;;;29.02;17.10;;;;;;;30.41;69.57;100470.56;5118638;27;69637;-41
2021/07/23 11:26:04;;;;;;;21.00;17.05;;;;;;;30.35;70.43;100466.06;5111041;27;66521;-41
2021/07/23 11:28:58;;;;;;;23.42;16.63;;;;;;;30.24;71.29;100481.97;5116804;27;69529;-40
2021/07/23 11:31:43;;;;;;;26.77;14.70;;;;;;;30.22;70.95;100470.56;5125809;27;65424;-44
2021/07/23 11:34:26;;;;;;;21.85;15.25;;;;;;;30.22;71.15;100477.84;5127072;27;69643;-44
2021/07/23 11:36:58;;;;;;;19.33;15.48;;;;;;;30.11;72.08;100476.69;5091798;27;66077;-41
2021/07/23 11:39:34;;;;;;;16.85;13.60;;;;;;;30.04;71.99;100481.34;5116428;27;70177;-43
2021/07/23 11:42:13;;;;;;;16.83;13.10;;;;;;;29.97;73.02;100478.69;5120526;27;66403;-43
2021/07/23 11:45:00;;;;;;;16.95;13.73;;;;;;;29.72;73.44;100457.09;5117089;27;69884;-45
2021/07/23 11:47:44;;;;;;;17.58;12.75;;;;;;;29.61;73.26;100445.16;5115345;27;64933;-42
2021/07/23 11:50:21;;;;;;;18.90;13.38;;;;;;;29.34;73.18;100405.91;5118765;27;70324;-40
2021/07/23 11:53:02;;;;;;;22.20;12.10;;;;;;;29.78;73.83;100485.13;5116717;27;66747;-41
2021/07/23 11:55:43;;;;;;;22.35;12.57;;;;;;;29.77;73.55;100503.22;5116586;27;69679;-42
2021/07/23 11:58:28;;;;;;;14.55;11.60;;;;;;;29.77;74.39;100514.03;5111858;27;66386;-40
2021/07/23 12:01:19;;;;;;;21.38;13.48;;;;;;;29.72;74.50;100513.88;5115199;27;69792;-41
2021/07/23 12:04:06;;;;;;;17.20;12.20;;;;;;;29.79;73.61;100517.38;5104693;27;65967;-43
2021/07/23 12:06:44;;;;;;;22.80;13.15;;;;;;;29.78;74.40;100517.56;5123101;27;70140;-45
2021/07/23 12:09:23;;;;;;;21.13;14.65;;;;;;;29.86;73.70;100524.59;5118329;27;65864;-34
2021/07/23 12:11:57;;;;;;;14.30;12.38;;;;;;;30.05;72.12;100529.78;5106563;27;70082;-35
2021/07/23 12:14:41;;;;;;;19.83;12.32;;;;;;;30.02;72.65;100532.94;5121173;27;65990;-33
2021/07/23 12:17:21;;;;;;;19.30;12.32;;;;;;;29.97;72.79;100534.66;5125565;27;70499;-33
2021/07/23 12:20:00;;;;;;;13.68;12.13;;;;;;;29.80;73.58;100521.72;5120198;27;65345;-34
2021/07/23 12:22:33;;;;;;;14.68;12.25;;;;;;;29.90;72.89;100542.03;5116842;27;70272;-33
2021/07/23 12:25:22;;;;;;;15.35;11.23;;;;;;;29.88;73.09;100560.34;5122429;27;66584;-34